CST,Max TemperatureF,Mean TemperatureF,Min TemperatureF,Max Dew PointF,MeanDew PointF,Min DewpointF,Max Humidity, Mean Humidity, Min Humidity, Max Sea Level PressureIn, Mean Sea Level PressureIn, Min Sea Level PressureIn, Max VisibilityMiles, Mean VisibilityMiles, Min VisibilityMiles, Max Wind SpeedMPH, Mean Wind SpeedMPH, Max Gust SpeedMPH,PrecipitationIn, CloudCover, Events, WindDirDegrees
2011-11-1,62,51,40,38,34,28,70,53,35,30.06,29.89,29.78,10,10,10,28,15,32,0.00,0,,335
2011-11-2,47,39,30,36,30,22,92,69,45,30.36,30.24,30.09,10,10,5,29,16,36,0.08,7,Rain,354
2011-11-3,52,35,18,24,18,15,84,54,24,30.42,30.33,30.25,10,10,10,10,5,13,0.00,0,,243
2011-11-4,53,40,26,33,26,21,72,54,35,30.24,30.11,29.93,10,10,10,26,15,33,0.00,0,,160
2011-11-5,59,51,42,40,34,28,70,54,37,29.91,29.66,29.52,10,10,10,36,22,46,T,0,,162
2011-11-6,55,42,28,39,28,18,79,52,24,30.09,29.79,29.45,10,10,10,29,13,39,0.00,0,,234
2011-11-7,52,37,22,24,19,17,84,55,26,30.25,30.19,30.12,10,10,10,12,5,17,0.00,3,,85
2011-11-8,48,41,34,28,22,20,57,46,34,30.18,30.14,30.09,10,10,10,16,7,20,0.00,6,,15
2011-11-9,48,37,26,23,18,14,75,51,26,30.31,30.27,30.19,10,10,10,30,13,37,0.00,0,,296
2011-11-10,49,37,24,22,15,12,62,43,23,30.33,30.20,29.92,10,10,10,18,10,24,0.00,0,,258
2011-11-11,68,45,21,23,20,17,84,50,15,29.90,29.76,29.66,10,10,10,17,7,21,0.00,0,,234
2011-11-12,58,42,26,36,28,19,75,57,39,29.62,29.46,29.31,10,10,10,22,9,25,0.00,0,,174
2011-11-13,55,45,34,43,30,21,92,64,35,29.56,29.44,29.24,10,10,10,29,12,38,0.01,1,Rain,256
2011-11-14,58,48,38,29,24,19,59,41,23,29.67,29.58,29.47,10,10,10,22,12,28,0.00,2,,228
2011-11-15,51,36,20,27,18,8,69,49,29,30.12,29.84,29.53,10,10,10,26,12,32,0.00,0,,287
2011-11-16,44,31,18,13,8,4,74,47,20,30.35,30.27,30.15,10,10,10,22,9,29,0.00,1,,284
2011-11-17,50,32,14,23,15,4,67,48,29,30.29,30.06,29.75,10,10,10,30,15,39,0.00,0,,202
2011-11-18,55,42,29,28,25,19,69,52,35,29.71,29.67,29.58,10,10,10,28,11,37,0.00,0,,214
2011-11-19,32,24,16,27,20,11,88,76,63,30.27,29.86,29.59,10,8,2,26,16,37,0.01,7,Rain-Snow,353
2011-11-20,32,22,12,21,14,8,91,75,59,30.40,30.34,30.29,10,10,9,13,4,15,0.00,1,,38
2011-11-21,42,27,12,28,21,9,88,71,53,30.29,30.19,30.06,10,10,9,14,6,16,0.00,2,,148
2011-11-22,49,38,26,30,28,22,100,73,46,30.13,30.07,30.01,10,6,2,9,3,13,0.00,2,,165
2011-11-23,62,42,21,30,25,19,92,61,29,30.15,30.09,30.02,10,8,2,14,5,15,0.00,0,,171
2011-11-24,65,51,37,38,31,26,70,51,31,29.99,29.86,29.73,10,10,10,26,13,33,0.00,0,,194
2011-11-25,54,47,40,44,40,32,93,76,58,29.75,29.68,29.60,10,9,7,21,10,26,0.00,2,,213
2011-11-26,44,37,30,31,24,9,76,56,36,30.33,30.09,29.77,10,10,8,43,27,53,0.00,5,,325
2011-11-27,43,30,17,15,7,1,57,38,18,30.37,30.29,30.21,10,10,10,22,10,30,0.00,0,,319
2011-11-28,56,37,17,30,15,6,70,45,20,30.31,30.14,30.06,10,10,10,23,9,29,0.00,0,,251
2011-11-29,45,33,21,28,14,-1,88,52,16,30.43,30.32,30.17,10,10,10,15,5,18,0.00,0,,288
2011-11-30,52,39,25,26,20,11,63,50,36,30.13,29.96,29.81,10,10,10,20,10,24,0.00,0,,189